Maersk Bali — 9V7499 — position and weather

sailwx.info

Track history (hours):
 
Tides and Currents Weather Stations Pressure Air Temp Water Temp Dewpoint Dewpoint Depression Visibility Wind Speed Wind Dir Waves Ship Positions

Maersk Bali

Last reported at 2015-Jul-05 03:33 UTC. Time now 2015-Jul-05 04:25 UTC.
Position N 35°55' E 014°04'.

Length 223 m; draft 10.6 m.

Type: Cargo ship. MMSI: 563102000.

Date/timePositionNaut miles runAvg speedWind from/ knotsBaromVisibWave heightAir tempDewpointWater temp
2015-Jul-05 03:33N 35°55' E 014°04'1111.1
2015-Jul-05 02:33N 36°02' E 013°53'1212.5
2015-Jul-05 01:33N 36°09' E 013°41'1918.9
2015-Jul-05 00:34N 36°19' E 013°21'1918.8
2015-Jul-04 23:33N 36°31' E 013°02'1918.9
2015-Jul-04 22:34N 36°41' E 012°43'2019.6
2015-Jul-04 21:34N 36°53' E 012°23'2019.6
2015-Jul-04 20:34N 37°03' E 012°02'1919.3
2015-Jul-04 19:33N 37°12' E 011°40'1919.3
2015-Jul-04 18:34N 37°20' E 011°19'2019.7
2015-Jul-04 17:33N 37°26' E 010°55'2120.5
2015-Jul-04 16:33N 37°32' E 010°30'2020.1
2015-Jul-04 15:33N 37°34' E 010°05'2020.3
2015-Jul-04 14:34N 37°34' E 009°39'2020.4
2015-Jul-04 13:33N 37°30' E 009°14'21619.0
2015-Jul-04 02:10N 37°21' E 004°42'1118.7
2015-Jul-04 01:33N 37°21' E 004°28'1818.5
2015-Jul-04 00:33N 37°22' E 004°05'1818.2
2015-Jul-03 23:33N 37°22' E 003°42'1817.9
2015-Jul-03 22:33N 37°24' E 003°19'2018.4
2015-Jul-03 21:27N 37°24' E 002°54'1718.3
2015-Jul-03 20:32N 37°21' E 002°33'1918.9
2015-Jul-03 19:33N 37°16' E 002°10'3718.6
2015-Jul-03 17:32N 37°07' E 001°25'1717.3
2015-Jul-03 16:33N 37°03' E 001°04'1616.3
2015-Jul-03 15:33N 36°58' E 000°45'1918.8
2015-Jul-03 14:33N 36°54' E 000°22'1919.0
2015-Jul-03 13:33N 36°49' W 000°01'1818.4
2015-Jul-03 12:34N 36°44' W 000°23'1918.6
2015-Jul-03 11:34N 36°39' W 000°45'8917.7
2015-Jul-03 06:32N 36°20' W 002°34'12715.7
2015-Jul-02 22:26N 36°06' W 005°10'1011.7
2015-Jul-02 21:34N 36°07' W 005°23'3 2.9
2015-Jul-02 20:32N 36°08' W 005°26'0 0.0
2015-Jul-02 19:20N 36°08' W 005°26'0 0.0
2015-Jul-02 18:20N 36°08' W 005°26'0 0.0
2015-Jul-02 17:32N 36°08' W 005°26'0 0.0
2015-Jul-02 16:32N 36°08' W 005°26'0 0.0
2015-Jul-02 15:32N 36°08' W 005°26'0 0.0
2015-Jul-02 13:23N 36°08' W 005°26'0 0.0
2015-Jul-02 11:23N 36°08' W 005°26'0 0.0
2015-Jul-02 10:11N 36°08' W 005°26'0 0.0
2015-Jul-02 09:23N 36°08' W 005°26'0 0.0
2015-Jul-02 05:32N 36°08' W 005°26'0 0.0
2015-Jul-02 03:11N 36°08' W 005°26'0 0.0
2015-Jul-02 02:26N 36°08' W 005°26'0 0.0
2015-Jul-02 01:11N 36°08' W 005°26'0 0.0
2015-Jul-02 00:32N 36°08' W 005°26'0 0.0
2015-Jul-01 23:26N 36°08' W 005°26'0 0.0
2015-Jul-01 22:29N 36°08' W 005°26'0 0.0
2015-Jul-01 21:26N 36°08' W 005°26'0 0.0
2015-Jul-01 20:26N 36°08' W 005°26'0 0.0
2015-Jul-01 17:32N 36°08' W 005°26'1 0.8
2015-Jul-01 16:32N 36°09' W 005°26'7 7.3
2015-Jul-01 15:33N 36°03' W 005°22'5811.3
2015-Jul-01 10:24N 35°54' W 006°33'3411.6
2015-Jul-01 07:26N 35°53' W 007°16'1111.8
2015-Jul-01 06:28N 35°53' W 007°30'1112.4
2015-Jul-01 05:33N 35°53' W 007°44'1312.7
2015-Jul-01 04:33N 35°52' W 007°59'1812.4
2015-Jul-01 03:07N 35°52' W 008°21'712.5
2015-Jul-01 02:33N 35°52' W 008°30'1212.4
2015-Jul-01 01:33N 35°52' W 008°45'1412.6
2015-Jul-01 00:26N 35°50' W 009°03'1212.7
2015-Jun-30 23:32N 35°51' W 009°17'1212.5
2015-Jun-30 22:33N 35°51' W 009°32'1312.4
2015-Jun-30 21:33N 35°51' W 009°47'1812.4
2015-Jun-30 20:03N 35°50' W 010°10'612.3
2015-Jun-30 19:33N 35°50' W 010°18'1712.2
2015-Jun-30 18:09N 35°49' W 010°39'712.2
2015-Jun-30 17:33N 35°49' W 010°47'4112.2
2015-Jun-30 14:11N 35°46' W 011°38'2212.2
2015-Jun-30 12:23N 35°45' W 012°05'1412.1
2015-Jun-30 11:15N 35°43' W 012°22'912.1
2015-Jun-30 10:31N 35°43' W 012°33'1212.0
2015-Jun-30 09:33N 35°43' W 012°47'13812.5
2015-Jun-29 22:30N 35°32' W 015°37'7412.5
2015-Jun-29 16:33N 35°24' W 017°07'1312.7
2015-Jun-29 15:33N 35°23' W 017°23'1614.0
2015-Jun-29 14:22N 35°21' W 017°43'1614.7
2015-Jun-29 13:18N 35°19' W 018°02'24514.6
2015-Jun-28 20:32N 34°44' W 022°58'2014.7
2015-Jun-28 19:10N 34°41' W 023°22'1015.0
2015-Jun-28 18:31N 34°39' W 023°34'1515.3
2015-Jun-28 17:32N 34°37' W 023°52'4615.2
2015-Jun-28 14:31N 34°30' W 024°47'1615.1
2015-Jun-28 13:26N 34°26' W 025°06'1315.1
2015-Jun-28 12:33N 34°24' W 025°22'7814.8
2015-Jun-28 07:19N 34°08' W 026°54'1214.8
2015-Jun-28 06:31N 34°05' W 027°08'1714.8
2015-Jun-28 05:24N 34°02' W 027°27'  
Track history (hours):
 
Tides and Currents Weather Stations Pressure Air Temp Water Temp Dewpoint Dewpoint Depression Visibility Wind Speed Wind Dir Waves Ship Positions

Maersk Bali

Last reported at 2015-Jul-05 03:33 UTC. Time now 2015-Jul-05 04:25 UTC.
Position N 35°55' E 014°04'.

Length 223 m; draft 10.6 m.

Type: Cargo ship. MMSI: 563102000.

Date/timePositionNaut miles runAvg speedWind from/ knotsBaromVisibWave heightAir tempDewpointWater temp
2015-Jul-05 03:33N 35°55' E 014°04'1111.1
2015-Jul-05 02:33N 36°02' E 013°53'1212.5
2015-Jul-05 01:33N 36°09' E 013°41'1918.9
2015-Jul-05 00:34N 36°19' E 013°21'1918.8
2015-Jul-04 23:33N 36°31' E 013°02'1918.9
2015-Jul-04 22:34N 36°41' E 012°43'2019.6
2015-Jul-04 21:34N 36°53' E 012°23'2019.6
2015-Jul-04 20:34N 37°03' E 012°02'1919.3
2015-Jul-04 19:33N 37°12' E 011°40'1919.3
2015-Jul-04 18:34N 37°20' E 011°19'2019.7
2015-Jul-04 17:33N 37°26' E 010°55'2120.5
2015-Jul-04 16:33N 37°32' E 010°30'2020.1
2015-Jul-04 15:33N 37°34' E 010°05'2020.3
2015-Jul-04 14:34N 37°34' E 009°39'2020.4
2015-Jul-04 13:33N 37°30' E 009°14'21619.0
2015-Jul-04 02:10N 37°21' E 004°42'1118.7
2015-Jul-04 01:33N 37°21' E 004°28'1818.5
2015-Jul-04 00:33N 37°22' E 004°05'1818.2
2015-Jul-03 23:33N 37°22' E 003°42'1817.9
2015-Jul-03 22:33N 37°24' E 003°19'2018.4
2015-Jul-03 21:27N 37°24' E 002°54'1718.3
2015-Jul-03 20:32N 37°21' E 002°33'1918.9
2015-Jul-03 19:33N 37°16' E 002°10'3718.6
2015-Jul-03 17:32N 37°07' E 001°25'1717.3
2015-Jul-03 16:33N 37°03' E 001°04'1616.3
2015-Jul-03 15:33N 36°58' E 000°45'1918.8
2015-Jul-03 14:33N 36°54' E 000°22'1919.0
2015-Jul-03 13:33N 36°49' W 000°01'1818.4
2015-Jul-03 12:34N 36°44' W 000°23'1918.6
2015-Jul-03 11:34N 36°39' W 000°45'8917.7
2015-Jul-03 06:32N 36°20' W 002°34'12715.7
2015-Jul-02 22:26N 36°06' W 005°10'1011.7
2015-Jul-02 21:34N 36°07' W 005°23'3 2.9
2015-Jul-02 20:32N 36°08' W 005°26'0 0.0
2015-Jul-02 19:20N 36°08' W 005°26'0 0.0
2015-Jul-02 18:20N 36°08' W 005°26'0 0.0
2015-Jul-02 17:32N 36°08' W 005°26'0 0.0
2015-Jul-02 16:32N 36°08' W 005°26'0 0.0
2015-Jul-02 15:32N 36°08' W 005°26'0 0.0
2015-Jul-02 13:23N 36°08' W 005°26'0 0.0
2015-Jul-02 11:23N 36°08' W 005°26'0 0.0
2015-Jul-02 10:11N 36°08' W 005°26'0 0.0
2015-Jul-02 09:23N 36°08' W 005°26'0 0.0
2015-Jul-02 05:32N 36°08' W 005°26'0 0.0
2015-Jul-02 03:11N 36°08' W 005°26'0 0.0
2015-Jul-02 02:26N 36°08' W 005°26'0 0.0
2015-Jul-02 01:11N 36°08' W 005°26'0 0.0
2015-Jul-02 00:32N 36°08' W 005°26'0 0.0
2015-Jul-01 23:26N 36°08' W 005°26'0 0.0
2015-Jul-01 22:29N 36°08' W 005°26'0 0.0
2015-Jul-01 21:26N 36°08' W 005°26'0 0.0
2015-Jul-01 20:26N 36°08' W 005°26'0 0.0
2015-Jul-01 17:32N 36°08' W 005°26'1 0.8
2015-Jul-01 16:32N 36°09' W 005°26'7 7.3
2015-Jul-01 15:33N 36°03' W 005°22'5811.3
2015-Jul-01 10:24N 35°54' W 006°33'3411.6
2015-Jul-01 07:26N 35°53' W 007°16'1111.8
2015-Jul-01 06:28N 35°53' W 007°30'1112.4
2015-Jul-01 05:33N 35°53' W 007°44'1312.7
2015-Jul-01 04:33N 35°52' W 007°59'1812.4
2015-Jul-01 03:07N 35°52' W 008°21'712.5
2015-Jul-01 02:33N 35°52' W 008°30'1212.4
2015-Jul-01 01:33N 35°52' W 008°45'1412.6
2015-Jul-01 00:26N 35°50' W 009°03'1212.7
2015-Jun-30 23:32N 35°51' W 009°17'1212.5
2015-Jun-30 22:33N 35°51' W 009°32'1312.4
2015-Jun-30 21:33N 35°51' W 009°47'1812.4
2015-Jun-30 20:03N 35°50' W 010°10'612.3
2015-Jun-30 19:33N 35°50' W 010°18'1712.2
2015-Jun-30 18:09N 35°49' W 010°39'712.2
2015-Jun-30 17:33N 35°49' W 010°47'4112.2
2015-Jun-30 14:11N 35°46' W 011°38'2212.2
2015-Jun-30 12:23N 35°45' W 012°05'1412.1
2015-Jun-30 11:15N 35°43' W 012°22'912.1
2015-Jun-30 10:31N 35°43' W 012°33'1212.0
2015-Jun-30 09:33N 35°43' W 012°47'13812.5
2015-Jun-29 22:30N 35°32' W 015°37'7412.5
2015-Jun-29 16:33N 35°24' W 017°07'1312.7
2015-Jun-29 15:33N 35°23' W 017°23'1614.0
2015-Jun-29 14:22N 35°21' W 017°43'1614.7
2015-Jun-29 13:18N 35°19' W 018°02'24514.6
2015-Jun-28 20:32N 34°44' W 022°58'2014.7
2015-Jun-28 19:10N 34°41' W 023°22'1015.0
2015-Jun-28 18:31N 34°39' W 023°34'1515.3
2015-Jun-28 17:32N 34°37' W 023°52'4615.2
2015-Jun-28 14:31N 34°30' W 024°47'1615.1
2015-Jun-28 13:26N 34°26' W 025°06'1315.1
2015-Jun-28 12:33N 34°24' W 025°22'7814.8
2015-Jun-28 07:19N 34°08' W 026°54'1214.8
2015-Jun-28 06:31N 34°05' W 027°08'1714.8
2015-Jun-28 05:24N 34°02' W 027°27'  

Dump ship's entire track history